sensor_id;sensor_type;location;lat;lon;timestamp;P1;durP1;ratioP1;P2;durP2;ratioP2
41343;SDS011;27089;50.022;7.604;2023-09-19T00:00:30;4.03;;;2.23;;
41343;SDS011;27089;50.022;7.604;2023-09-19T00:02:59;3.93;;;2.40;;
41343;SDS011;27089;50.022;7.604;2023-09-19T00:05:27;2.93;;;2.07;;
41343;SDS011;27089;50.022;7.604;2023-09-19T00:07:55;4.43;;;2.10;;
41343;SDS011;27089;50.022;7.604;2023-09-19T00:10:24;3.40;;;2.10;;
41343;SDS011;27089;50.022;7.604;2023-09-19T00:12:52;5.77;;;2.27;;
41343;SDS011;27089;50.022;7.604;2023-09-19T00:15:20;3.10;;;2.03;;
41343;SDS011;27089;50.022;7.604;2023-09-19T00:17:47;7.47;;;2.40;;
41343;SDS011;27089;50.022;7.604;2023-09-19T00:20:17;2.80;;;2.20;;
41343;SDS011;27089;50.022;7.604;2023-09-19T00:22:48;2.57;;;2.00;;
41343;SDS011;27089;50.022;7.604;2023-09-19T00:25:17;3.33;;;2.13;;
41343;SDS011;27089;50.022;7.604;2023-09-19T00:27:44;3.93;;;2.70;;
41343;SDS011;27089;50.022;7.604;2023-09-19T00:30:13;3.77;;;2.43;;
41343;SDS011;27089;50.022;7.604;2023-09-19T00:32:45;2.50;;;2.07;;
41343;SDS011;27089;50.022;7.604;2023-09-19T00:35:12;5.37;;;2.37;;
41343;SDS011;27089;50.022;7.604;2023-09-19T00:37:40;3.10;;;2.40;;
41343;SDS011;27089;50.022;7.604;2023-09-19T00:40:09;4.60;;;2.23;;
41343;SDS011;27089;50.022;7.604;2023-09-19T00:42:37;3.27;;;2.20;;
41343;SDS011;27089;50.022;7.604;2023-09-19T00:45:06;3.00;;;2.50;;
41343;SDS011;27089;50.022;7.604;2023-09-19T00:47:36;6.10;;;3.00;;
41343;SDS011;27089;50.022;7.604;2023-09-19T00:50:04;4.00;;;3.00;;
41343;SDS011;27089;50.022;7.604;2023-09-19T00:52:33;3.33;;;2.90;;
41343;SDS011;27089;50.022;7.604;2023-09-19T00:55:01;2.60;;;2.40;;
41343;SDS011;27089;50.022;7.604;2023-09-19T00:57:30;3.00;;;2.30;;
41343;SDS011;27089;50.022;7.604;2023-09-19T00:59:58;4.70;;;2.30;;
41343;SDS011;27089;50.022;7.604;2023-09-19T01:02:30;4.10;;;2.50;;
41343;SDS011;27089;50.022;7.604;2023-09-19T01:04:57;4.67;;;2.30;;
41343;SDS011;27089;50.022;7.604;2023-09-19T01:07:25;6.17;;;2.20;;
41343;SDS011;27089;50.022;7.604;2023-09-19T01:09:52;6.27;;;2.23;;
41343;SDS011;27089;50.022;7.604;2023-09-19T01:12:22;2.97;;;2.30;;
41343;SDS011;27089;50.022;7.604;2023-09-19T01:14:59;4.07;;;2.10;;
41343;SDS011;27089;50.022;7.604;2023-09-19T01:17:34;5.17;;;2.20;;
41343;SDS011;27089;50.022;7.604;2023-09-19T01:23:04;3.37;;;2.30;;
41343;SDS011;27089;50.022;7.604;2023-09-19T01:31:31;4.10;;;1.97;;
41343;SDS011;27089;50.022;7.604;2023-09-19T01:34:01;4.00;;;2.20;;
41343;SDS011;27089;50.022;7.604;2023-09-19T01:36:30;5.73;;;2.50;;
41343;SDS011;27089;50.022;7.604;2023-09-19T01:39:02;4.10;;;2.20;;
41343;SDS011;27089;50.022;7.604;2023-09-19T01:41:38;3.97;;;1.87;;
41343;SDS011;27089;50.022;7.604;2023-09-19T01:44:16;3.30;;;1.83;;
41343;SDS011;27089;50.022;7.604;2023-09-19T01:46:49;3.80;;;2.00;;
41343;SDS011;27089;50.022;7.604;2023-09-19T01:49:21;2.67;;;1.40;;
41343;SDS011;27089;50.022;7.604;2023-09-19T01:51:56;3.53;;;1.60;;
41343;SDS011;27089;50.022;7.604;2023-09-19T01:54:30;2.13;;;1.57;;
41343;SDS011;27089;50.022;7.604;2023-09-19T01:57:04;4.03;;;1.70;;
41343;SDS011;27089;50.022;7.604;2023-09-19T01:59:37;1.80;;;1.40;;
41343;SDS011;27089;50.022;7.604;2023-09-19T02:02:13;5.87;;;1.67;;
41343;SDS011;27089;50.022;7.604;2023-09-19T02:04:41;3.30;;;1.50;;
41343;SDS011;27089;50.022;7.604;2023-09-19T02:07:08;3.83;;;1.50;;
41343;SDS011;27089;50.022;7.604;2023-09-19T02:09:35;4.50;;;1.63;;
41343;SDS011;27089;50.022;7.604;2023-09-19T02:12:04;4.50;;;2.00;;
41343;SDS011;27089;50.022;7.604;2023-09-19T02:14:32;3.53;;;1.67;;
41343;SDS011;27089;50.022;7.604;2023-09-19T02:17:00;2.73;;;1.60;;
41343;SDS011;27089;50.022;7.604;2023-09-19T02:19:29;5.43;;;2.00;;
41343;SDS011;27089;50.022;7.604;2023-09-19T02:21:58;3.13;;;1.60;;
41343;SDS011;27089;50.022;7.604;2023-09-19T02:24:26;3.03;;;1.50;;
41343;SDS011;27089;50.022;7.604;2023-09-19T02:26:54;3.73;;;1.63;;
41343;SDS011;27089;50.022;7.604;2023-09-19T02:29:21;2.90;;;1.67;;
41343;SDS011;27089;50.022;7.604;2023-09-19T02:31:48;3.83;;;2.00;;
41343;SDS011;27089;50.022;7.604;2023-09-19T02:34:15;3.53;;;1.80;;
41343;SDS011;27089;50.022;7.604;2023-09-19T02:36:44;3.97;;;1.80;;
41343;SDS011;27089;50.022;7.604;2023-09-19T02:39:11;3.00;;;1.90;;
41343;SDS011;27089;50.022;7.604;2023-09-19T02:41:38;5.40;;;2.10;;
41343;SDS011;27089;50.022;7.604;2023-09-19T02:44:06;4.23;;;2.17;;
41343;SDS011;27089;50.022;7.604;2023-09-19T02:46:34;6.33;;;2.30;;
41343;SDS011;27089;50.022;7.604;2023-09-19T02:49:02;9.40;;;2.10;;
41343;SDS011;27089;50.022;7.604;2023-09-19T02:51:30;4.40;;;2.33;;
41343;SDS011;27089;50.022;7.604;2023-09-19T02:54:01;4.20;;;2.10;;
41343;SDS011;27089;50.022;7.604;2023-09-19T02:56:28;4.87;;;1.83;;
41343;SDS011;27089;50.022;7.604;2023-09-19T02:58:57;5.90;;;2.57;;
41343;SDS011;27089;50.022;7.604;2023-09-19T03:01:25;4.03;;;2.00;;
41343;SDS011;27089;50.022;7.604;2023-09-19T03:03:53;6.20;;;2.40;;
41343;SDS011;27089;50.022;7.604;2023-09-19T03:06:20;5.07;;;2.33;;
41343;SDS011;27089;50.022;7.604;2023-09-19T03:08:49;6.10;;;2.10;;
41343;SDS011;27089;50.022;7.604;2023-09-19T03:11:18;5.17;;;2.30;;
41343;SDS011;27089;50.022;7.604;2023-09-19T03:13:52;4.90;;;2.20;;
41343;SDS011;27089;50.022;7.604;2023-09-19T03:16:19;4.07;;;2.13;;
41343;SDS011;27089;50.022;7.604;2023-09-19T03:18:48;2.87;;;2.00;;
41343;SDS011;27089;50.022;7.604;2023-09-19T03:21:15;3.77;;;2.10;;
41343;SDS011;27089;50.022;7.604;2023-09-19T03:23:42;4.33;;;2.00;;
41343;SDS011;27089;50.022;7.604;2023-09-19T03:26:11;5.23;;;2.10;;
41343;SDS011;27089;50.022;7.604;2023-09-19T03:28:41;7.27;;;2.20;;
41343;SDS011;27089;50.022;7.604;2023-09-19T03:31:08;3.87;;;2.20;;
41343;SDS011;27089;50.022;7.604;2023-09-19T03:33:35;7.03;;;2.23;;
41343;SDS011;27089;50.022;7.604;2023-09-19T03:36:03;4.63;;;1.97;;
41343;SDS011;27089;50.022;7.604;2023-09-19T03:38:31;3.53;;;1.87;;
41343;SDS011;27089;50.022;7.604;2023-09-19T03:40:59;3.60;;;1.60;;
41343;SDS011;27089;50.022;7.604;2023-09-19T03:43:26;6.77;;;1.87;;
41343;SDS011;27089;50.022;7.604;2023-09-19T03:45:54;6.07;;;1.80;;
41343;SDS011;27089;50.022;7.604;2023-09-19T03:48:21;4.83;;;2.53;;
41343;SDS011;27089;50.022;7.604;2023-09-19T03:50:48;3.87;;;2.00;;
41343;SDS011;27089;50.022;7.604;2023-09-19T03:53:16;5.57;;;1.77;;
41343;SDS011;27089;50.022;7.604;2023-09-19T03:55:44;5.87;;;1.97;;
41343;SDS011;27089;50.022;7.604;2023-09-19T03:58:15;3.13;;;1.73;;
41343;SDS011;27089;50.022;7.604;2023-09-19T04:00:42;4.37;;;1.90;;
41343;SDS011;27089;50.022;7.604;2023-09-19T04:03:10;5.47;;;2.00;;
41343;SDS011;27089;50.022;7.604;2023-09-19T04:05:44;5.40;;;1.83;;
41343;SDS011;27089;50.022;7.604;2023-09-19T04:08:11;5.63;;;1.67;;
41343;SDS011;27089;50.022;7.604;2023-09-19T04:10:40;4.93;;;2.00;;
41343;SDS011;27089;50.022;7.604;2023-09-19T04:13:08;5.13;;;1.53;;
41343;SDS011;27089;50.022;7.604;2023-09-19T04:15:35;4.07;;;1.87;;
41343;SDS011;27089;50.022;7.604;2023-09-19T04:18:02;3.73;;;1.90;;
41343;SDS011;27089;50.022;7.604;2023-09-19T04:20:31;3.60;;;1.70;;
41343;SDS011;27089;50.022;7.604;2023-09-19T04:22:58;7.33;;;2.60;;
41343;SDS011;27089;50.022;7.604;2023-09-19T04:25:25;3.27;;;1.90;;
41343;SDS011;27089;50.022;7.604;2023-09-19T04:27:52;4.57;;;1.83;;
41343;SDS011;27089;50.022;7.604;2023-09-19T04:30:19;6.80;;;1.93;;
41343;SDS011;27089;50.022;7.604;2023-09-19T04:32:46;4.43;;;1.97;;
41343;SDS011;27089;50.022;7.604;2023-09-19T04:35:15;3.80;;;2.00;;
41343;SDS011;27089;50.022;7.604;2023-09-19T04:37:44;6.27;;;1.90;;
41343;SDS011;27089;50.022;7.604;2023-09-19T04:40:11;5.20;;;1.90;;
41343;SDS011;27089;50.022;7.604;2023-09-19T04:42:42;5.10;;;2.00;;
41343;SDS011;27089;50.022;7.604;2023-09-19T04:45:09;6.37;;;1.87;;
41343;SDS011;27089;50.022;7.604;2023-09-19T04:47:36;5.07;;;1.90;;
41343;SDS011;27089;50.022;7.604;2023-09-19T04:50:05;3.77;;;2.07;;
41343;SDS011;27089;50.022;7.604;2023-09-19T04:52:37;4.17;;;1.67;;
41343;SDS011;27089;50.022;7.604;2023-09-19T04:55:08;3.57;;;2.10;;
41343;SDS011;27089;50.022;7.604;2023-09-19T04:57:35;4.17;;;1.83;;
41343;SDS011;27089;50.022;7.604;2023-09-19T05:00:04;5.30;;;2.17;;
41343;SDS011;27089;50.022;7.604;2023-09-19T05:02:37;5.13;;;1.90;;
41343;SDS011;27089;50.022;7.604;2023-09-19T05:05:06;4.27;;;1.90;;
41343;SDS011;27089;50.022;7.604;2023-09-19T05:07:33;4.80;;;1.87;;
41343;SDS011;27089;50.022;7.604;2023-09-19T05:10:02;3.93;;;1.73;;
41343;SDS011;27089;50.022;7.604;2023-09-19T05:12:33;2.97;;;1.80;;
41343;SDS011;27089;50.022;7.604;2023-09-19T05:15:01;6.93;;;2.00;;
41343;SDS011;27089;50.022;7.604;2023-09-19T05:17:29;6.47;;;2.00;;
41343;SDS011;27089;50.022;7.604;2023-09-19T05:19:56;4.97;;;1.97;;
41343;SDS011;27089;50.022;7.604;2023-09-19T05:22:26;2.87;;;1.80;;
41343;SDS011;27089;50.022;7.604;2023-09-19T05:24:53;3.40;;;1.63;;
41343;SDS011;27089;50.022;7.604;2023-09-19T05:27:20;3.70;;;1.60;;
41343;SDS011;27089;50.022;7.604;2023-09-19T05:29:48;3.63;;;1.90;;
41343;SDS011;27089;50.022;7.604;2023-09-19T05:32:18;5.43;;;1.60;;
41343;SDS011;27089;50.022;7.604;2023-09-19T05:34:45;4.00;;;1.47;;
41343;SDS011;27089;50.022;7.604;2023-09-19T05:37:13;4.17;;;1.80;;
41343;SDS011;27089;50.022;7.604;2023-09-19T05:39:41;4.53;;;1.60;;
41343;SDS011;27089;50.022;7.604;2023-09-19T05:42:08;3.47;;;1.50;;
41343;SDS011;27089;50.022;7.604;2023-09-19T05:44:35;5.27;;;2.20;;
41343;SDS011;27089;50.022;7.604;2023-09-19T05:47:04;2.67;;;1.50;;
41343;SDS011;27089;50.022;7.604;2023-09-19T05:49:34;3.30;;;1.70;;
41343;SDS011;27089;50.022;7.604;2023-09-19T05:52:02;6.07;;;1.87;;
41343;SDS011;27089;50.022;7.604;2023-09-19T05:54:30;8.30;;;2.20;;
41343;SDS011;27089;50.022;7.604;2023-09-19T05:56:58;4.43;;;1.90;;
41343;SDS011;27089;50.022;7.604;2023-09-19T05:59:25;3.30;;;1.90;;
41343;SDS011;27089;50.022;7.604;2023-09-19T06:01:52;4.10;;;1.60;;
41343;SDS011;27089;50.022;7.604;2023-09-19T06:04:20;5.43;;;1.80;;
41343;SDS011;27089;50.022;7.604;2023-09-19T06:06:48;6.53;;;2.50;;
41343;SDS011;27089;50.022;7.604;2023-09-19T06:09:15;2.73;;;1.40;;
41343;SDS011;27089;50.022;7.604;2023-09-19T06:11:42;4.07;;;1.50;;
41343;SDS011;27089;50.022;7.604;2023-09-19T06:14:09;5.33;;;1.80;;
41343;SDS011;27089;50.022;7.604;2023-09-19T06:16:36;2.90;;;1.60;;
41343;SDS011;27089;50.022;7.604;2023-09-19T06:19:04;5.53;;;1.57;;
41343;SDS011;27089;50.022;7.604;2023-09-19T06:21:35;3.03;;;1.47;;
41343;SDS011;27089;50.022;7.604;2023-09-19T06:24:02;4.30;;;1.87;;
41343;SDS011;27089;50.022;7.604;2023-09-19T06:26:30;3.07;;;1.70;;
41343;SDS011;27089;50.022;7.604;2023-09-19T06:28:57;3.37;;;1.40;;
41343;SDS011;27089;50.022;7.604;2023-09-19T06:31:24;4.90;;;1.87;;
41343;SDS011;27089;50.022;7.604;2023-09-19T06:33:52;9.63;;;2.27;;
41343;SDS011;27089;50.022;7.604;2023-09-19T06:36:19;3.80;;;2.00;;
41343;SDS011;27089;50.022;7.604;2023-09-19T06:38:47;4.40;;;1.93;;
41343;SDS011;27089;50.022;7.604;2023-09-19T06:41:16;4.60;;;1.90;;
41343;SDS011;27089;50.022;7.604;2023-09-19T06:43:43;6.00;;;1.90;;
41343;SDS011;27089;50.022;7.604;2023-09-19T06:46:10;5.87;;;1.50;;
41343;SDS011;27089;50.022;7.604;2023-09-19T06:48:37;4.27;;;1.83;;
41343;SDS011;27089;50.022;7.604;2023-09-19T06:51:04;6.20;;;1.80;;
41343;SDS011;27089;50.022;7.604;2023-09-19T06:53:33;6.83;;;2.17;;
41343;SDS011;27089;50.022;7.604;2023-09-19T06:56:02;7.13;;;1.90;;
41343;SDS011;27089;50.022;7.604;2023-09-19T06:58:29;4.60;;;2.00;;
41343;SDS011;27089;50.022;7.604;2023-09-19T07:00:56;4.23;;;1.50;;
41343;SDS011;27089;50.022;7.604;2023-09-19T07:03:23;4.60;;;1.50;;
41343;SDS011;27089;50.022;7.604;2023-09-19T07:05:51;4.87;;;1.93;;
41343;SDS011;27089;50.022;7.604;2023-09-19T07:08:21;6.03;;;1.60;;
41343;SDS011;27089;50.022;7.604;2023-09-19T07:10:48;9.13;;;2.00;;
41343;SDS011;27089;50.022;7.604;2023-09-19T07:13:19;4.60;;;1.60;;
41343;SDS011;27089;50.022;7.604;2023-09-19T07:15:46;6.53;;;1.70;;
41343;SDS011;27089;50.022;7.604;2023-09-19T07:18:13;4.87;;;1.80;;
41343;SDS011;27089;50.022;7.604;2023-09-19T07:20:41;6.87;;;1.70;;
41343;SDS011;27089;50.022;7.604;2023-09-19T07:23:13;5.00;;;1.87;;
41343;SDS011;27089;50.022;7.604;2023-09-19T07:25:41;7.07;;;1.77;;
41343;SDS011;27089;50.022;7.604;2023-09-19T07:28:08;6.37;;;1.93;;
41343;SDS011;27089;50.022;7.604;2023-09-19T07:30:37;3.40;;;1.57;;
41343;SDS011;27089;50.022;7.604;2023-09-19T07:33:04;4.50;;;1.80;;
41343;SDS011;27089;50.022;7.604;2023-09-19T07:35:31;9.90;;;3.67;;
41343;SDS011;27089;50.022;7.604;2023-09-19T07:37:59;5.77;;;2.43;;
41343;SDS011;27089;50.022;7.604;2023-09-19T07:40:27;6.57;;;2.80;;
41343;SDS011;27089;50.022;7.604;2023-09-19T07:42:55;7.57;;;2.73;;
41343;SDS011;27089;50.022;7.604;2023-09-19T07:45:26;5.90;;;2.57;;
41343;SDS011;27089;50.022;7.604;2023-09-19T07:47:56;8.65;;;3.33;;
41343;SDS011;27089;50.022;7.604;2023-09-19T07:50:25;5.93;;;2.42;;
41343;SDS011;27089;50.022;7.604;2023-09-19T07:52:52;6.28;;;1.92;;
41343;SDS011;27089;50.022;7.604;2023-09-19T07:55:19;5.45;;;2.20;;
41343;SDS011;27089;50.022;7.604;2023-09-19T07:57:49;6.53;;;2.30;;
41343;SDS011;27089;50.022;7.604;2023-09-19T08:00:16;6.93;;;2.53;;
41343;SDS011;27089;50.022;7.604;2023-09-19T08:02:43;5.78;;;3.85;;
41343;SDS011;27089;50.022;7.604;2023-09-19T08:05:12;7.57;;;2.92;;
41343;SDS011;27089;50.022;7.604;2023-09-19T08:07:41;7.70;;;2.70;;
41343;SDS011;27089;50.022;7.604;2023-09-19T08:10:10;5.00;;;2.35;;
41343;SDS011;27089;50.022;7.604;2023-09-19T08:12:38;6.45;;;2.13;;
41343;SDS011;27089;50.022;7.604;2023-09-19T08:15:11;7.03;;;2.22;;
41343;SDS011;27089;50.022;7.604;2023-09-19T08:17:38;6.18;;;2.50;;
41343;SDS011;27089;50.022;7.604;2023-09-19T08:20:06;9.63;;;2.58;;
41343;SDS011;27089;50.022;7.604;2023-09-19T08:22:42;5.35;;;1.67;;
41343;SDS011;27089;50.022;7.604;2023-09-19T08:25:11;5.82;;;2.10;;
41343;SDS011;27089;50.022;7.604;2023-09-19T08:27:38;6.38;;;1.70;;
41343;SDS011;27089;50.022;7.604;2023-09-19T08:30:06;6.50;;;2.15;;
41343;SDS011;27089;50.022;7.604;2023-09-19T08:32:33;5.07;;;1.88;;
41343;SDS011;27089;50.022;7.604;2023-09-19T08:35:00;9.73;;;2.20;;
41343;SDS011;27089;50.022;7.604;2023-09-19T08:37:29;9.70;;;2.40;;
41343;SDS011;27089;50.022;7.604;2023-09-19T08:39:59;7.20;;;1.70;;
41343;SDS011;27089;50.022;7.604;2023-09-19T08:42:25;7.38;;;1.92;;
41343;SDS011;27089;50.022;7.604;2023-09-19T08:44:53;6.40;;;1.75;;
41343;SDS011;27089;50.022;7.604;2023-09-19T08:47:26;5.68;;;2.00;;
41343;SDS011;27089;50.022;7.604;2023-09-19T08:50:01;6.88;;;1.73;;
41343;SDS011;27089;50.022;7.604;2023-09-19T08:52:41;7.93;;;2.08;;
41343;SDS011;27089;50.022;7.604;2023-09-19T08:55:11;7.13;;;2.38;;
41343;SDS011;27089;50.022;7.604;2023-09-19T08:57:45;7.07;;;1.92;;
41343;SDS011;27089;50.022;7.604;2023-09-19T09:00:15;8.98;;;2.03;;
41343;SDS011;27089;50.022;7.604;2023-09-19T09:02:43;7.90;;;2.30;;
41343;SDS011;27089;50.022;7.604;2023-09-19T09:05:12;7.07;;;1.90;;
41343;SDS011;27089;50.022;7.604;2023-09-19T09:07:41;6.63;;;1.85;;
41343;SDS011;27089;50.022;7.604;2023-09-19T09:10:11;6.25;;;2.00;;
41343;SDS011;27089;50.022;7.604;2023-09-19T09:12:38;6.45;;;1.80;;
41343;SDS011;27089;50.022;7.604;2023-09-19T09:15:07;6.25;;;1.60;;
41343;SDS011;27089;50.022;7.604;2023-09-19T09:17:36;6.43;;;1.80;;
41343;SDS011;27089;50.022;7.604;2023-09-19T09:20:04;5.20;;;1.88;;
41343;SDS011;27089;50.022;7.604;2023-09-19T09:22:35;6.63;;;1.98;;
41343;SDS011;27089;50.022;7.604;2023-09-19T09:25:05;6.75;;;1.80;;
41343;SDS011;27089;50.022;7.604;2023-09-19T09:27:34;7.25;;;1.92;;
41343;SDS011;27089;50.022;7.604;2023-09-19T09:30:01;5.90;;;1.95;;
41343;SDS011;27089;50.022;7.604;2023-09-19T09:32:29;5.07;;;1.73;;
41343;SDS011;27089;50.022;7.604;2023-09-19T09:35:00;10.73;;;5.13;;
41343;SDS011;27089;50.022;7.604;2023-09-19T09:37:29;6.10;;;2.80;;
41343;SDS011;27089;50.022;7.604;2023-09-19T09:39:57;6.45;;;2.45;;
41343;SDS011;27089;50.022;7.604;2023-09-19T09:42:45;4.25;;;1.95;;
41343;SDS011;27089;50.022;7.604;2023-09-19T09:45:15;7.18;;;2.38;;
41343;SDS011;27089;50.022;7.604;2023-09-19T09:47:44;7.25;;;2.20;;
41343;SDS011;27089;50.022;7.604;2023-09-19T09:50:27;5.85;;;2.10;;
41343;SDS011;27089;50.022;7.604;2023-09-19T09:53:04;6.93;;;1.85;;
41343;SDS011;27089;50.022;7.604;2023-09-19T09:56:02;7.03;;;2.10;;
41343;SDS011;27089;50.022;7.604;2023-09-19T09:58:33;5.20;;;1.70;;
41343;SDS011;27089;50.022;7.604;2023-09-19T10:01:02;6.32;;;1.80;;
41343;SDS011;27089;50.022;7.604;2023-09-19T10:03:34;3.97;;;1.85;;
41343;SDS011;27089;50.022;7.604;2023-09-19T10:06:06;4.07;;;1.90;;
41343;SDS011;27089;50.022;7.604;2023-09-19T10:08:59;4.22;;;1.38;;
41343;SDS011;27089;50.022;7.604;2023-09-19T10:11:36;6.35;;;2.13;;
41343;SDS011;27089;50.022;7.604;2023-09-19T10:14:09;6.18;;;1.90;;
41343;SDS011;27089;50.022;7.604;2023-09-19T10:16:40;8.52;;;1.90;;
41343;SDS011;27089;50.022;7.604;2023-09-19T10:19:12;5.80;;;2.00;;
41343;SDS011;27089;50.022;7.604;2023-09-19T10:21:43;5.38;;;2.10;;
41343;SDS011;27089;50.022;7.604;2023-09-19T10:24:11;6.05;;;2.08;;
41343;SDS011;27089;50.022;7.604;2023-09-19T10:26:41;6.72;;;1.75;;
41343;SDS011;27089;50.022;7.604;2023-09-19T10:29:11;3.72;;;1.50;;
41343;SDS011;27089;50.022;7.604;2023-09-19T10:31:42;5.95;;;2.60;;
41343;SDS011;27089;50.022;7.604;2023-09-19T10:34:12;7.18;;;3.47;;
41343;SDS011;27089;50.022;7.604;2023-09-19T10:36:42;6.78;;;1.98;;
41343;SDS011;27089;50.022;7.604;2023-09-19T10:39:12;5.95;;;3.25;;
41343;SDS011;27089;50.022;7.604;2023-09-19T10:41:47;5.22;;;2.33;;
41343;SDS011;27089;50.022;7.604;2023-09-19T10:44:23;9.35;;;3.70;;
41343;SDS011;27089;50.022;7.604;2023-09-19T10:46:51;11.65;;;4.88;;
41343;SDS011;27089;50.022;7.604;2023-09-19T10:49:19;7.30;;;2.00;;
41343;SDS011;27089;50.022;7.604;2023-09-19T10:51:47;6.38;;;2.70;;
41343;SDS011;27089;50.022;7.604;2023-09-19T10:54:20;7.53;;;2.60;;
41343;SDS011;27089;50.022;7.604;2023-09-19T10:56:51;4.28;;;1.50;;
41343;SDS011;27089;50.022;7.604;2023-09-19T10:59:25;5.65;;;2.05;;
41343;SDS011;27089;50.022;7.604;2023-09-19T11:01:59;7.47;;;2.03;;
41343;SDS011;27089;50.022;7.604;2023-09-19T11:04:42;3.60;;;1.52;;
41343;SDS011;27089;50.022;7.604;2023-09-19T11:07:13;6.57;;;1.88;;
41343;SDS011;27089;50.022;7.604;2023-09-19T11:09:44;6.60;;;1.65;;
41343;SDS011;27089;50.022;7.604;2023-09-19T11:12:12;4.88;;;1.60;;
41343;SDS011;27089;50.022;7.604;2023-09-19T11:14:55;4.25;;;1.50;;
41343;SDS011;27089;50.022;7.604;2023-09-19T11:17:32;4.22;;;1.48;;
41343;SDS011;27089;50.022;7.604;2023-09-19T11:20:20;4.05;;;1.52;;
41343;SDS011;27089;50.022;7.604;2023-09-19T11:25:52;4.20;;;1.48;;
41343;SDS011;27089;50.022;7.604;2023-09-19T11:28:29;5.82;;;1.77;;
41343;SDS011;27089;50.022;7.604;2023-09-19T11:31:00;5.97;;;1.92;;
41343;SDS011;27089;50.022;7.604;2023-09-19T11:34:43;4.25;;;1.58;;
41343;SDS011;27089;50.022;7.604;2023-09-19T11:40:25;4.55;;;1.63;;
41343;SDS011;27089;50.022;7.604;2023-09-19T11:42:53;3.67;;;1.67;;
41343;SDS011;27089;50.022;7.604;2023-09-19T11:48:31;6.38;;;1.55;;
41343;SDS011;27089;50.022;7.604;2023-09-19T11:51:00;3.38;;;1.42;;
41343;SDS011;27089;50.022;7.604;2023-09-19T11:53:32;4.95;;;1.60;;
41343;SDS011;27089;50.022;7.604;2023-09-19T11:56:01;5.32;;;1.67;;
41343;SDS011;27089;50.022;7.604;2023-09-19T11:58:35;4.28;;;1.48;;
41343;SDS011;27089;50.022;7.604;2023-09-19T12:01:04;2.55;;;1.10;;
41343;SDS011;27089;50.022;7.604;2023-09-19T12:03:39;5.68;;;1.67;;
41343;SDS011;27089;50.022;7.604;2023-09-19T12:06:13;7.20;;;2.15;;
41343;SDS011;27089;50.022;7.604;2023-09-19T12:08:41;4.35;;;1.50;;
41343;SDS011;27089;50.022;7.604;2023-09-19T12:11:12;4.63;;;1.45;;
41343;SDS011;27089;50.022;7.604;2023-09-19T12:13:41;1.88;;;1.35;;
41343;SDS011;27089;50.022;7.604;2023-09-19T12:16:14;3.10;;;1.33;;
41343;SDS011;27089;50.022;7.604;2023-09-19T12:18:43;5.70;;;1.92;;
41343;SDS011;27089;50.022;7.604;2023-09-19T12:21:27;3.38;;;1.40;;
41343;SDS011;27089;50.022;7.604;2023-09-19T12:26:37;5.20;;;1.60;;
41343;SDS011;27089;50.022;7.604;2023-09-19T12:29:15;5.47;;;1.30;;
41343;SDS011;27089;50.022;7.604;2023-09-19T12:31:49;3.72;;;1.48;;
41343;SDS011;27089;50.022;7.604;2023-09-19T12:34:21;3.97;;;1.48;;
41343;SDS011;27089;50.022;7.604;2023-09-19T12:37:09;4.72;;;1.50;;
41343;SDS011;27089;50.022;7.604;2023-09-19T12:39:45;5.63;;;1.30;;
41343;SDS011;27089;50.022;7.604;2023-09-19T12:42:16;3.80;;;1.45;;
41343;SDS011;27089;50.022;7.604;2023-09-19T12:44:44;3.45;;;1.30;;
41343;SDS011;27089;50.022;7.604;2023-09-19T12:47:13;4.20;;;1.45;;
41343;SDS011;27089;50.022;7.604;2023-09-19T12:52:40;4.32;;;1.40;;
41343;SDS011;27089;50.022;7.604;2023-09-19T12:55:18;4.95;;;1.33;;
41343;SDS011;27089;50.022;7.604;2023-09-19T13:00:38;4.03;;;1.17;;
41343;SDS011;27089;50.022;7.604;2023-09-19T13:03:09;3.38;;;0.93;;
41343;SDS011;27089;50.022;7.604;2023-09-19T13:05:48;3.05;;;1.30;;
41343;SDS011;27089;50.022;7.604;2023-09-19T13:08:18;2.67;;;1.35;;
41343;SDS011;27089;50.022;7.604;2023-09-19T13:11:00;4.75;;;1.38;;
41343;SDS011;27089;50.022;7.604;2023-09-19T13:13:29;6.93;;;1.40;;
41343;SDS011;27089;50.022;7.604;2023-09-19T13:15:56;4.55;;;1.35;;
41343;SDS011;27089;50.022;7.604;2023-09-19T13:18:23;2.97;;;1.30;;
41343;SDS011;27089;50.022;7.604;2023-09-19T13:21:06;5.00;;;1.48;;
41343;SDS011;27089;50.022;7.604;2023-09-19T13:23:35;3.17;;;1.30;;
41343;SDS011;27089;50.022;7.604;2023-09-19T13:26:03;5.18;;;1.48;;
41343;SDS011;27089;50.022;7.604;2023-09-19T13:28:30;3.10;;;1.00;;
41343;SDS011;27089;50.022;7.604;2023-09-19T13:30:57;3.80;;;1.10;;
41343;SDS011;27089;50.022;7.604;2023-09-19T13:33:24;3.33;;;1.40;;
41343;SDS011;27089;50.022;7.604;2023-09-19T13:35:51;4.10;;;1.50;;
41343;SDS011;27089;50.022;7.604;2023-09-19T13:38:20;2.60;;;1.33;;
41343;SDS011;27089;50.022;7.604;2023-09-19T13:40:48;4.38;;;1.30;;
41343;SDS011;27089;50.022;7.604;2023-09-19T13:43:17;4.75;;;1.70;;
41343;SDS011;27089;50.022;7.604;2023-09-19T13:45:47;4.43;;;1.65;;
41343;SDS011;27089;50.022;7.604;2023-09-19T13:48:15;3.75;;;1.35;;
41343;SDS011;27089;50.022;7.604;2023-09-19T13:50:47;2.97;;;1.30;;
41343;SDS011;27089;50.022;7.604;2023-09-19T13:53:15;4.15;;;1.27;;
41343;SDS011;27089;50.022;7.604;2023-09-19T13:55:50;4.40;;;1.50;;
41343;SDS011;27089;50.022;7.604;2023-09-19T13:58:17;2.60;;;1.33;;
41343;SDS011;27089;50.022;7.604;2023-09-19T14:00:44;4.50;;;1.40;;
41343;SDS011;27089;50.022;7.604;2023-09-19T14:03:11;3.42;;;1.40;;
41343;SDS011;27089;50.022;7.604;2023-09-19T14:05:38;5.50;;;1.55;;
41343;SDS011;27089;50.022;7.604;2023-09-19T14:08:05;5.57;;;1.33;;
41343;SDS011;27089;50.022;7.604;2023-09-19T14:10:33;4.03;;;1.55;;
41343;SDS011;27089;50.022;7.604;2023-09-19T14:13:02;3.20;;;1.15;;
41343;SDS011;27089;50.022;7.604;2023-09-19T14:15:29;4.18;;;1.40;;
41343;SDS011;27089;50.022;7.604;2023-09-19T14:17:57;4.53;;;1.42;;
41343;SDS011;27089;50.022;7.604;2023-09-19T14:20:25;4.30;;;1.23;;
41343;SDS011;27089;50.022;7.604;2023-09-19T14:22:53;2.60;;;1.20;;
41343;SDS011;27089;50.022;7.604;2023-09-19T14:25:20;4.50;;;1.27;;
41343;SDS011;27089;50.022;7.604;2023-09-19T14:27:47;4.72;;;1.30;;
41343;SDS011;27089;50.022;7.604;2023-09-19T14:30:17;3.88;;;1.20;;
41343;SDS011;27089;50.022;7.604;2023-09-19T14:32:44;2.30;;;1.02;;
41343;SDS011;27089;50.022;7.604;2023-09-19T14:35:11;5.93;;;1.30;;
41343;SDS011;27089;50.022;7.604;2023-09-19T14:37:39;5.78;;;1.30;;
41343;SDS011;27089;50.022;7.604;2023-09-19T14:40:07;3.90;;;1.42;;
41343;SDS011;27089;50.022;7.604;2023-09-19T14:42:35;2.38;;;1.17;;
41343;SDS011;27089;50.022;7.604;2023-09-19T14:45:05;3.65;;;1.48;;
41343;SDS011;27089;50.022;7.604;2023-09-19T14:47:34;6.15;;;1.50;;
41343;SDS011;27089;50.022;7.604;2023-09-19T14:50:02;5.15;;;1.38;;
41343;SDS011;27089;50.022;7.604;2023-09-19T14:52:31;5.40;;;1.58;;
41343;SDS011;27089;50.022;7.604;2023-09-19T14:54:59;2.97;;;0.93;;
41343;SDS011;27089;50.022;7.604;2023-09-19T14:57:27;2.72;;;1.30;;
41343;SDS011;27089;50.022;7.604;2023-09-19T14:59:54;3.88;;;1.13;;
41343;SDS011;27089;50.022;7.604;2023-09-19T15:02:21;2.42;;;1.30;;
41343;SDS011;27089;50.022;7.604;2023-09-19T15:04:50;3.70;;;1.30;;
41343;SDS011;27089;50.022;7.604;2023-09-19T15:07:17;3.97;;;1.10;;
41343;SDS011;27089;50.022;7.604;2023-09-19T15:09:45;2.10;;;0.98;;
41343;SDS011;27089;50.022;7.604;2023-09-19T15:12:12;2.85;;;1.02;;
41343;SDS011;27089;50.022;7.604;2023-09-19T15:14:40;3.60;;;1.23;;
41343;SDS011;27089;50.022;7.604;2023-09-19T15:17:08;1.70;;;1.00;;
41343;SDS011;27089;50.022;7.604;2023-09-19T15:19:34;1.60;;;1.10;;
41343;SDS011;27089;50.022;7.604;2023-09-19T15:22:04;2.95;;;0.90;;
41343;SDS011;27089;50.022;7.604;2023-09-19T15:24:32;2.00;;;0.90;;
41343;SDS011;27089;50.022;7.604;2023-09-19T15:26:59;2.60;;;1.10;;
41343;SDS011;27089;50.022;7.604;2023-09-19T15:29:26;3.60;;;1.08;;